createdAt,value
2018-08-12T00:00:16.085Z,0.00
2018-08-12T00:01:16.039Z,0.00
2018-08-12T00:02:16.035Z,0.00
2018-08-12T00:03:15.963Z,0.00
2018-08-12T00:04:16.874Z,0.00
2018-08-12T00:05:15.883Z,0.00
2018-08-12T00:06:15.860Z,0.00
2018-08-12T00:07:15.805Z,0.00
2018-08-12T00:08:15.764Z,0.00
2018-08-12T00:09:15.726Z,0.00
2018-08-12T00:10:15.711Z,0.00
2018-08-12T00:11:15.681Z,0.00
2018-08-12T00:12:15.615Z,0.00
2018-08-12T00:13:15.609Z,0.00
2018-08-12T00:14:15.546Z,0.00
2018-08-12T00:15:15.502Z,0.00
2018-08-12T00:16:15.471Z,0.00
2018-08-12T00:17:15.421Z,0.00
2018-08-12T00:18:15.399Z,0.00
2018-08-12T00:19:15.351Z,0.00
2018-08-12T00:20:15.302Z,0.00
2018-08-12T00:21:15.264Z,0.00
2018-08-12T00:22:15.234Z,0.00
2018-08-12T00:23:15.211Z,0.00
2018-08-12T00:24:15.156Z,0.00
2018-08-12T00:25:15.130Z,0.00
2018-08-12T00:26:15.067Z,0.00
2018-08-12T00:27:15.024Z,0.00
2018-08-12T00:28:14.991Z,0.00
2018-08-12T00:29:14.955Z,0.00
2018-08-12T00:30:14.931Z,0.00
2018-08-12T00:31:14.880Z,0.00
2018-08-12T00:32:14.833Z,0.00
2018-08-12T00:33:14.797Z,0.00
2018-08-12T00:34:14.759Z,0.00
2018-08-12T00:35:14.812Z,0.00
2018-08-12T00:36:14.669Z,0.00
2018-08-12T00:37:14.640Z,0.00
2018-08-12T00:38:14.593Z,0.00
2018-08-12T00:39:14.647Z,0.00
2018-08-12T00:40:14.536Z,0.00
2018-08-12T00:41:14.474Z,0.00
2018-08-12T00:42:14.441Z,0.00
2018-08-12T00:43:14.391Z,0.00
2018-08-12T00:44:14.427Z,0.00
2018-08-12T00:45:14.323Z,0.00
2018-08-12T00:46:14.325Z,0.00
2018-08-12T00:47:14.246Z,0.00
2018-08-12T00:48:14.270Z,0.00
2018-08-12T00:49:14.171Z,0.00
2018-08-12T00:50:14.115Z,0.00
2018-08-12T00:51:14.085Z,0.00
2018-08-12T00:52:14.037Z,0.00
2018-08-12T00:53:14.020Z,0.00
2018-08-12T00:54:13.962Z,0.00
2018-08-12T00:55:13.939Z,0.00
2018-08-12T00:56:13.899Z,0.00
2018-08-12T00:57:13.877Z,0.00
2018-08-12T00:58:13.828Z,0.00
2018-08-12T00:59:13.782Z,0.00
2018-08-12T01:00:13.759Z,0.00
2018-08-12T01:01:13.686Z,0.00
2018-08-12T01:02:13.673Z,0.00
2018-08-12T01:03:13.606Z,0.00
2018-08-12T01:04:13.572Z,0.00
2018-08-12T01:05:13.544Z,0.00
2018-08-12T01:06:13.511Z,0.00
2018-08-12T01:07:13.466Z,0.00
2018-08-12T01:08:13.413Z,0.00
2018-08-12T01:09:13.401Z,0.00
2018-08-12T01:10:13.387Z,0.00
2018-08-12T01:11:13.295Z,0.00
2018-08-12T01:12:13.250Z,0.00
2018-08-12T01:13:13.219Z,0.00
2018-08-12T01:14:13.207Z,0.00
2018-08-12T01:15:13.148Z,0.00
2018-08-12T01:16:13.117Z,0.00
2018-08-12T01:17:13.071Z,0.00
2018-08-12T01:18:13.043Z,0.00
2018-08-12T01:19:12.988Z,0.00
2018-08-12T01:20:12.955Z,0.00
2018-08-12T01:21:12.932Z,0.00
2018-08-12T01:22:12.874Z,0.00
2018-08-12T01:23:12.826Z,0.00
2018-08-12T01:24:12.794Z,0.00
2018-08-12T01:25:12.756Z,0.00
2018-08-12T01:26:12.722Z,0.00
2018-08-12T01:27:12.660Z,0.00
2018-08-12T01:28:12.628Z,0.00
2018-08-12T01:29:12.600Z,0.00
2018-08-12T01:30:12.548Z,0.00
2018-08-12T01:31:12.568Z,0.00
2018-08-12T01:32:12.468Z,0.00
2018-08-12T01:33:12.457Z,0.00
2018-08-12T01:34:12.388Z,0.00
2018-08-12T01:35:12.374Z,0.00
2018-08-12T01:36:12.302Z,0.00
2018-08-12T01:37:12.345Z,0.00
2018-08-12T01:38:12.235Z,0.00
2018-08-12T01:39:12.191Z,0.00
2018-08-12T01:40:12.175Z,0.00
2018-08-12T01:41:12.112Z,0.00
2018-08-12T01:42:12.102Z,0.00
2018-08-12T01:43:12.055Z,0.00
2018-08-12T01:44:11.997Z,0.00
2018-08-12T01:45:11.958Z,0.00
2018-08-12T01:46:11.921Z,0.00
2018-08-12T01:47:11.886Z,0.00
2018-08-12T01:48:11.896Z,0.00
2018-08-12T01:49:11.816Z,0.00
2018-08-12T01:50:11.771Z,0.00
2018-08-12T01:51:11.708Z,0.00
2018-08-12T01:52:11.681Z,0.00
2018-08-12T01:53:11.702Z,0.00
2018-08-12T01:54:11.596Z,0.00
2018-08-12T01:55:11.589Z,0.00
2018-08-12T01:56:11.527Z,0.00
2018-08-12T01:57:11.481Z,0.00
2018-08-12T01:58:11.479Z,0.00
2018-08-12T01:59:11.433Z,0.00
2018-08-12T02:00:11.359Z,0.00
2018-08-12T02:01:11.313Z,0.00
2018-08-12T02:02:11.294Z,0.00
2018-08-12T02:03:11.251Z,0.00
2018-08-12T02:04:11.199Z,0.00
2018-08-12T02:05:11.157Z,0.00
2018-08-12T02:06:11.123Z,0.00
2018-08-12T02:07:11.075Z,0.00
2018-08-12T02:08:11.062Z,0.00
2018-08-12T02:09:11.007Z,0.00
2018-08-12T02:10:10.981Z,0.00
2018-08-12T02:11:10.917Z,0.00
2018-08-12T02:12:10.902Z,0.00
2018-08-12T02:13:10.872Z,0.00
2018-08-12T02:14:10.823Z,0.00
2018-08-12T02:15:10.780Z,0.00
2018-08-12T02:16:10.729Z,0.00
2018-08-12T02:17:10.731Z,0.00
2018-08-12T02:18:10.661Z,0.00
2018-08-12T02:19:10.728Z,0.00
2018-08-12T02:20:10.563Z,0.00
2018-08-12T02:21:10.520Z,0.00
2018-08-12T02:22:10.478Z,0.00
2018-08-12T02:23:10.450Z,0.00
2018-08-12T02:24:10.445Z,0.00
2018-08-12T02:25:10.373Z,0.00
2018-08-12T02:26:10.347Z,0.00
2018-08-12T02:27:10.291Z,0.00
2018-08-12T02:28:10.254Z,0.00
2018-08-12T02:29:10.205Z,0.00
2018-08-12T02:30:10.170Z,0.00
2018-08-12T02:31:10.122Z,0.00
2018-08-12T02:32:10.089Z,0.00
2018-08-12T02:33:10.055Z,0.00
2018-08-12T02:34:10.026Z,0.00
2018-08-12T02:35:09.964Z,0.00
2018-08-12T02:36:09.932Z,0.00
2018-08-12T02:37:09.902Z,0.00
2018-08-12T02:38:09.859Z,0.00
2018-08-12T02:39:09.811Z,0.00
2018-08-12T02:40:09.772Z,0.00
2018-08-12T02:41:09.736Z,0.00
2018-08-12T02:42:09.686Z,0.00
2018-08-12T02:43:09.650Z,0.00
2018-08-12T02:44:09.625Z,0.00
2018-08-12T02:45:09.559Z,0.00
2018-08-12T02:46:09.562Z,0.00
2018-08-12T02:47:09.492Z,0.00
2018-08-12T02:48:09.463Z,0.00
2018-08-12T02:49:09.413Z,0.00
2018-08-12T02:50:09.379Z,0.00
2018-08-12T02:51:09.355Z,0.00
2018-08-12T02:52:09.317Z,0.00
2018-08-12T02:53:09.253Z,0.00
2018-08-12T02:54:09.202Z,0.00
2018-08-12T02:55:09.184Z,0.00
2018-08-12T02:56:09.123Z,0.00
2018-08-12T02:57:09.100Z,0.00
2018-08-12T02:58:09.066Z,0.00
2018-08-12T02:59:09.012Z,0.00
2018-08-12T03:00:08.977Z,0.00
2018-08-12T03:01:08.965Z,0.00
2018-08-12T03:02:08.891Z,0.00
2018-08-12T03:03:08.862Z,0.00
2018-08-12T03:04:08.813Z,0.00
2018-08-12T03:05:08.781Z,0.00
2018-08-12T03:06:08.732Z,0.00
2018-08-12T03:07:08.693Z,0.00
2018-08-12T03:08:08.660Z,0.00
2018-08-12T03:09:08.639Z,0.00
2018-08-12T03:10:08.582Z,0.00
2018-08-12T03:11:08.527Z,0.00
2018-08-12T03:12:08.503Z,0.00
2018-08-12T03:13:08.450Z,0.00
2018-08-12T03:14:08.420Z,4.00
2018-08-12T03:15:08.364Z,4.00
2018-08-12T03:16:08.340Z,4.00
2018-08-12T03:17:08.367Z,0.00
2018-08-12T03:18:08.260Z,4.00
2018-08-12T03:19:08.221Z,4.00
2018-08-12T03:20:08.187Z,4.00
2018-08-12T03:21:08.156Z,8.00
2018-08-12T03:22:08.107Z,4.00
2018-08-12T03:23:08.099Z,8.00
2018-08-12T03:24:08.017Z,8.00
2018-08-12T03:25:07.966Z,8.00
2018-08-12T03:26:07.984Z,12.00
2018-08-12T03:27:07.885Z,12.00
2018-08-12T03:28:07.864Z,16.00
2018-08-12T03:29:07.812Z,16.00
2018-08-12T03:30:07.821Z,24.00
2018-08-12T03:31:07.730Z,24.00
2018-08-12T03:32:07.681Z,32.00
2018-08-12T03:33:07.673Z,32.00
2018-08-12T03:34:07.660Z,40.00
2018-08-12T03:35:07.566Z,48.00
2018-08-12T03:36:07.536Z,56.00
2018-08-12T03:37:07.480Z,60.00
2018-08-12T03:38:07.449Z,72.00
2018-08-12T03:39:07.405Z,84.00
2018-08-12T03:40:07.382Z,96.00
2018-08-12T03:41:07.322Z,108.00
2018-08-12T03:42:07.282Z,124.00
2018-08-12T03:43:07.260Z,140.00
2018-08-12T03:44:07.228Z,160.00
2018-08-12T03:45:07.171Z,184.00
2018-08-12T03:46:07.126Z,204.00
2018-08-12T03:47:07.124Z,228.00
2018-08-12T03:48:07.060Z,252.00
2018-08-12T03:49:07.021Z,276.00
2018-08-12T03:50:06.972Z,304.00
2018-08-12T03:51:06.936Z,332.00
2018-08-12T03:52:06.884Z,372.00
2018-08-12T03:53:06.836Z,412.00
2018-08-12T03:54:06.803Z,448.00
2018-08-12T03:55:06.762Z,488.00
2018-08-12T03:56:06.732Z,532.00
2018-08-12T03:57:06.716Z,576.00
2018-08-12T03:58:06.656Z,616.00
2018-08-12T03:59:06.613Z,668.00
2018-08-12T04:00:06.571Z,720.00
2018-08-12T04:01:06.517Z,772.00
2018-08-12T04:02:06.496Z,832.00
2018-08-12T04:03:06.435Z,896.00
2018-08-12T04:04:06.407Z,968.00
2018-08-12T04:05:06.428Z,1048.00
2018-08-12T04:06:06.342Z,1124.00
2018-08-12T04:07:06.293Z,1208.00
2018-08-12T04:08:06.243Z,1288.00
2018-08-12T04:09:06.226Z,1380.00
2018-08-12T04:10:06.164Z,1472.00
2018-08-12T04:11:06.233Z,1564.00
2018-08-12T04:12:06.097Z,1656.00
2018-08-12T04:13:06.070Z,1744.00
2018-08-12T04:14:05.995Z,1828.00
2018-08-12T04:15:05.966Z,1916.00
2018-08-12T04:16:05.931Z,1996.00
2018-08-12T04:17:05.888Z,2080.00
2018-08-12T04:18:05.831Z,2152.00
2018-08-12T04:19:05.883Z,2240.00
2018-08-12T04:20:05.768Z,2332.00
2018-08-12T04:21:05.773Z,2404.00
2018-08-12T04:22:05.693Z,2468.00
2018-08-12T04:23:05.639Z,2536.00
2018-08-12T04:24:05.613Z,2612.00
2018-08-12T04:25:05.589Z,2700.00
2018-08-12T04:26:05.522Z,2808.00
2018-08-12T04:27:05.479Z,2916.00
2018-08-12T04:28:05.457Z,3032.00
2018-08-12T04:29:05.433Z,3140.00
2018-08-12T04:30:05.369Z,3228.00
2018-08-12T04:31:05.322Z,3304.00
2018-08-12T04:32:05.283Z,3372.00
2018-08-12T04:33:05.240Z,3460.00
2018-08-12T04:34:05.204Z,3564.00
2018-08-12T04:35:05.190Z,3672.00
2018-08-12T04:36:05.115Z,3788.00
2018-08-12T04:37:05.116Z,3908.00
2018-08-12T04:38:05.043Z,4032.00
2018-08-12T04:39:04.996Z,4156.00
2018-08-12T04:40:04.956Z,4268.00
2018-08-12T04:41:04.936Z,4368.00
2018-08-12T04:42:04.878Z,4460.00
2018-08-12T04:43:04.832Z,4564.00
2018-08-12T04:44:04.794Z,4652.00
2018-08-12T04:45:04.766Z,4748.00
2018-08-12T04:46:04.730Z,4840.00
2018-08-12T04:47:04.676Z,4940.00
2018-08-12T04:48:04.641Z,5040.00
2018-08-12T04:49:04.597Z,5128.00
2018-08-12T04:50:04.635Z,5216.00
2018-08-12T04:51:04.515Z,5316.00
2018-08-12T04:52:04.482Z,5444.00
2018-08-12T04:53:04.470Z,5536.00
2018-08-12T04:54:04.397Z,5596.00
2018-08-12T04:55:04.382Z,5688.00
2018-08-12T04:56:04.327Z,5760.00
2018-08-12T04:57:04.277Z,5836.00
2018-08-12T04:58:04.232Z,5904.00
2018-08-12T04:59:04.195Z,5976.00
2018-08-12T05:00:04.174Z,6056.00
2018-08-12T05:01:04.146Z,6128.00
2018-08-12T05:02:04.072Z,6196.00
2018-08-12T05:03:04.055Z,6256.00
2018-08-12T05:04:04.014Z,6360.00
2018-08-12T05:05:03.959Z,6432.00
2018-08-12T05:06:03.926Z,6520.00
2018-08-12T05:07:03.904Z,6648.00
2018-08-12T05:08:03.838Z,6768.00
2018-08-12T05:09:03.796Z,6928.00
2018-08-12T05:10:03.798Z,7068.00
2018-08-12T05:11:03.721Z,7376.00
2018-08-12T05:12:03.707Z,7756.00
2018-08-12T05:13:03.642Z,7668.00
2018-08-12T05:14:03.641Z,7600.00
2018-08-12T05:15:03.581Z,7804.00
2018-08-12T05:16:03.551Z,8264.00
2018-08-12T05:17:03.488Z,8024.00
2018-08-12T05:18:03.443Z,8052.00
2018-08-12T05:19:03.417Z,8464.00
2018-08-12T05:20:03.367Z,9140.00
2018-08-12T05:21:03.333Z,10276.00
2018-08-12T05:22:03.299Z,9512.00
2018-08-12T05:23:03.250Z,8524.00
2018-08-12T05:24:03.231Z,8412.00
2018-08-12T05:25:03.179Z,8492.00
2018-08-12T05:26:03.135Z,8640.00
2018-08-12T05:27:03.100Z,8684.00
2018-08-12T05:28:03.063Z,8932.00
2018-08-12T05:29:03.048Z,9496.00
2018-08-12T05:30:02.984Z,10016.00
2018-08-12T05:31:02.934Z,9852.00
2018-08-12T05:32:02.916Z,9916.00
2018-08-12T05:33:02.910Z,9972.00
2018-08-12T05:34:02.828Z,9736.00
2018-08-12T05:35:02.794Z,9260.00
2018-08-12T05:36:02.806Z,9372.00
2018-08-12T05:37:02.709Z,9436.00
2018-08-12T05:38:02.670Z,9376.00
2018-08-12T05:39:02.651Z,9456.00
2018-08-12T05:40:02.597Z,9584.00
2018-08-12T05:41:02.573Z,9832.00
2018-08-12T05:42:02.522Z,9916.00
2018-08-12T05:43:02.476Z,10196.00
2018-08-12T05:44:02.457Z,10548.00
2018-08-12T05:45:02.400Z,11176.00
2018-08-12T05:46:02.363Z,11488.00
2018-08-12T05:47:02.339Z,11060.00
2018-08-12T05:48:02.308Z,11264.00
2018-08-12T05:49:02.373Z,11320.00
2018-08-12T05:50:02.216Z,11272.00
2018-08-12T05:51:02.185Z,11424.00
2018-08-12T05:52:02.141Z,11780.00
2018-08-12T05:53:02.106Z,12072.00
2018-08-12T05:54:02.066Z,12016.00
2018-08-12T05:55:02.027Z,12152.00
2018-08-12T05:56:02.007Z,12324.00
2018-08-12T05:57:01.948Z,12568.00
2018-08-12T05:58:01.914Z,12808.00
2018-08-12T05:59:01.883Z,13172.00
2018-08-12T06:00:01.850Z,13528.00
2018-08-12T06:01:01.806Z,13852.00
2018-08-12T06:02:01.794Z,14072.00
2018-08-12T06:03:01.747Z,14204.00
2018-08-12T06:04:01.692Z,14204.00
2018-08-12T06:05:01.665Z,14112.00
2018-08-12T06:06:01.638Z,14228.00
2018-08-12T06:07:01.676Z,14420.00
2018-08-12T06:08:01.565Z,14588.00
2018-08-12T06:09:01.520Z,14728.00
2018-08-12T06:10:01.492Z,14860.00
2018-08-12T06:11:01.483Z,15040.00
2018-08-12T06:12:01.451Z,15240.00
2018-08-12T06:13:01.369Z,15348.00
2018-08-12T06:14:01.437Z,15508.00
2018-08-12T06:15:01.310Z,15692.00
2018-08-12T06:16:01.254Z,15908.00
2018-08-12T06:17:01.269Z,16080.00
2018-08-12T06:18:01.191Z,16256.00
2018-08-12T06:19:01.141Z,16928.00
2018-08-12T06:20:01.107Z,18100.00
2018-08-12T06:21:01.074Z,19872.00
2018-08-12T06:22:01.027Z,19840.00
2018-08-12T06:23:00.996Z,18000.00
2018-08-12T06:24:00.969Z,17248.00
2018-08-12T06:25:00.920Z,17520.00
2018-08-12T06:26:00.905Z,18112.00
2018-08-12T06:27:00.861Z,17816.00
2018-08-12T06:28:00.841Z,17728.00
2018-08-12T06:29:00.800Z,17792.00
2018-08-12T06:30:00.750Z,18260.00
2018-08-12T06:31:00.719Z,18296.00
2018-08-12T06:32:00.682Z,18108.00
2018-08-12T06:33:00.704Z,18040.00
2018-08-12T06:34:00.615Z,17972.00
2018-08-12T06:35:00.594Z,17968.00
2018-08-12T06:36:00.558Z,18024.00
2018-08-12T06:37:00.503Z,18032.00
2018-08-12T06:38:00.469Z,17992.00
2018-08-12T06:39:00.453Z,17892.00
2018-08-12T06:40:00.401Z,17844.00
2018-08-12T06:41:00.368Z,17836.00
2018-08-12T06:42:00.358Z,17804.00
2018-08-12T06:43:00.310Z,17724.00
2018-08-12T06:44:00.299Z,17600.00
2018-08-12T06:45:00.234Z,17568.00
2018-08-12T06:46:00.201Z,17580.00
2018-08-12T06:47:00.176Z,17608.00
2018-08-12T06:48:00.141Z,17672.00
2018-08-12T06:49:00.167Z,17724.00
2018-08-12T06:50:00.066Z,17932.00
2018-08-12T06:51:00.030Z,18752.00
2018-08-12T06:52:00.013Z,20640.00
2018-08-12T06:52:59.974Z,23968.00
2018-08-12T06:53:59.939Z,25696.00
2018-08-12T06:54:59.887Z,27296.00
2018-08-12T06:55:59.936Z,28576.00
2018-08-12T06:56:59.823Z,31424.00
2018-08-12T06:57:59.803Z,32768.00
2018-08-12T06:58:59.779Z,33056.00
2018-08-12T06:59:59.725Z,37536.00
2018-08-12T07:00:59.709Z,42912.00
2018-08-12T07:01:59.679Z,42976.00
2018-08-12T07:02:59.641Z,47936.00
2018-08-12T07:03:59.617Z,44992.00
2018-08-12T07:04:59.576Z,45568.00
2018-08-12T07:05:59.538Z,49472.00
2018-08-12T07:06:59.522Z,53792.00
2018-08-12T07:08:01.548Z,42336.00
2018-08-12T07:09:01.478Z,50496.00
2018-08-12T07:10:01.527Z,50400.00
2018-08-12T07:10:59.423Z,50976.00
2018-08-12T07:12:01.565Z,48224.00
2018-08-12T07:12:59.350Z,55808.00
2018-08-12T07:13:59.300Z,59776.00
2018-08-12T07:14:59.283Z,53632.00
2018-08-12T07:15:59.240Z,47840.00
2018-08-12T07:16:59.210Z,46368.00
2018-08-12T07:17:59.184Z,50016.00
2018-08-12T07:18:59.164Z,45440.00
2018-08-12T07:19:59.135Z,50400.00
2018-08-12T07:20:59.108Z,51232.00
2018-08-12T07:21:59.101Z,54336.00
2018-08-12T07:22:59.056Z,61120.00
2018-08-12T07:23:59.023Z,57792.00
2018-08-12T07:24:59.003Z,51584.00
2018-08-12T07:25:58.970Z,53984.00
2018-08-12T07:26:58.948Z,58080.00
2018-08-12T07:27:58.921Z,59552.00
2018-08-12T07:28:58.894Z,57632.00
2018-08-12T07:29:58.881Z,60768.00
2018-08-12T07:30:58.846Z,69408.00
2018-08-12T07:31:58.819Z,69536.00
2018-08-12T07:32:58.839Z,71392.00
2018-08-12T07:33:58.784Z,81440.00
2018-08-12T07:34:58.742Z,78944.00
2018-08-12T07:35:58.719Z,64704.00
2018-08-12T07:36:58.717Z,63008.00
2018-08-12T07:38:00.444Z,56480.00
2018-08-12T07:39:00.611Z,63744.00
2018-08-12T07:40:00.814Z,68384.00
2018-08-12T07:40:58.622Z,73472.00
2018-08-12T07:41:58.588Z,75392.00
2018-08-12T07:42:58.562Z,76032.00
2018-08-12T07:43:58.546Z,78176.00
2018-08-12T07:44:58.498Z,78080.00
2018-08-12T07:45:58.483Z,77952.00
2018-08-12T07:46:58.465Z,68704.00
2018-08-12T07:47:58.451Z,77440.00
2018-08-12T07:48:58.432Z,80160.00
2018-08-12T07:49:58.393Z,81888.00
2018-08-12T07:50:58.398Z,81088.00
2018-08-12T07:51:58.389Z,86752.00
2018-08-12T07:52:58.347Z,81920.00
2018-08-12T07:53:58.318Z,81216.00
2018-08-12T07:54:58.311Z,82848.00
2018-08-12T07:55:58.304Z,84608.00
2018-08-12T07:56:58.312Z,85632.00
2018-08-12T07:57:58.312Z,88640.00
2018-08-12T07:58:58.284Z,93568.00
2018-08-12T07:59:59.089Z,90208.00
2018-08-12T08:00:58.494Z,82560.00
2018-08-12T08:01:59.107Z,81440.00
2018-08-12T08:03:05.095Z,81024.00
2018-08-12T08:03:58.109Z,80896.00
2018-08-12T08:04:58.158Z,83008.00
2018-08-12T08:05:58.088Z,81280.00
2018-08-12T08:06:58.068Z,93120.00
2018-08-12T08:07:58.052Z,99488.00
2018-08-12T08:08:58.075Z,91648.00
2018-08-12T08:09:58.017Z,84864.00
2018-08-12T08:10:58.048Z,87008.00
2018-08-12T08:11:58.072Z,84320.00
2018-08-12T08:12:57.965Z,90624.00
2018-08-12T08:13:58.437Z,88448.00
2018-08-12T08:14:57.980Z,80416.00
2018-08-12T08:15:57.971Z,81696.00
2018-08-12T08:16:58.100Z,80128.00
2018-08-12T08:17:57.905Z,82496.00
2018-08-12T08:18:57.908Z,82528.00
2018-08-12T08:19:57.865Z,79232.00
2018-08-12T08:20:57.856Z,76832.00
2018-08-12T08:21:58.730Z,85504.00
2018-08-12T08:22:57.827Z,78688.00
2018-08-12T08:23:57.947Z,79360.00
2018-08-12T08:24:58.732Z,83360.00
2018-08-12T08:25:58.142Z,82496.00
2018-08-12T08:26:57.749Z,95072.00
2018-08-12T08:27:57.694Z,93504.00
2018-08-12T08:28:58.146Z,83360.00
2018-08-12T08:30:00.473Z,80160.00
2018-08-12T08:30:58.629Z,80608.00
2018-08-12T08:32:00.652Z,84992.00
2018-08-12T08:33:00.503Z,80448.00
2018-08-12T08:33:57.843Z,86816.00
2018-08-12T08:34:57.599Z,84256.00
2018-08-12T08:35:59.513Z,78624.00
2018-08-12T08:36:58.517Z,78816.00
2018-08-12T08:37:59.633Z,75168.00
2018-08-12T08:38:57.448Z,81632.00
2018-08-12T08:39:57.426Z,88608.00
2018-08-12T08:40:57.417Z,82208.00
2018-08-12T08:41:57.531Z,74432.00
2018-08-12T08:42:57.391Z,73504.00
2018-08-12T08:43:57.404Z,80352.00
2018-08-12T08:44:57.333Z,80096.00
2018-08-12T08:45:57.369Z,88480.00
2018-08-12T08:46:59.119Z,86944.00
2018-08-12T08:48:00.536Z,93088.00
2018-08-12T08:48:57.574Z,89120.00
2018-08-12T08:49:58.559Z,83776.00
2018-08-12T08:50:59.235Z,84704.00
2018-08-12T08:52:00.574Z,83680.00
2018-08-12T08:52:59.078Z,84672.00
2018-08-12T08:53:59.043Z,86528.00
2018-08-12T08:54:59.505Z,87328.00
2018-08-12T08:55:57.296Z,90944.00
2018-08-12T08:56:57.112Z,92608.00
2018-08-12T08:57:57.112Z,95648.00
2018-08-12T08:58:57.127Z,98496.00
2018-08-12T08:59:57.068Z,100128.00
2018-08-12T09:00:57.044Z,87264.00
2018-08-12T09:01:57.023Z,91456.00
2018-08-12T09:02:57.006Z,94336.00
2018-08-12T09:03:57.040Z,96384.00
2018-08-12T09:04:57.050Z,94688.00
2018-08-12T09:05:56.960Z,97856.00
2018-08-12T09:07:00.142Z,94688.00
2018-08-12T09:07:59.266Z,94016.00
2018-08-12T09:08:57.929Z,90208.00
2018-08-12T09:09:58.982Z,94720.00
2018-08-12T09:10:59.582Z,98400.00
2018-08-12T09:11:57.970Z,90112.00
2018-08-12T09:12:59.081Z,81248.00
2018-08-12T09:13:59.076Z,72448.00
2018-08-12T09:14:58.609Z,77472.00
2018-08-12T09:15:58.660Z,83136.00
2018-08-12T09:16:56.739Z,80032.00
2018-08-12T09:17:56.717Z,69984.00
2018-08-12T09:18:56.697Z,68000.00
2018-08-12T09:19:56.680Z,77120.00
2018-08-12T09:20:56.665Z,86208.00
2018-08-12T09:21:57.758Z,90176.00
2018-08-12T09:22:56.630Z,100928.00
2018-08-12T09:23:56.646Z,103072.00
2018-08-12T09:24:56.595Z,98976.00
2018-08-12T09:25:56.567Z,101632.00
2018-08-12T09:26:56.562Z,98976.00
2018-08-12T09:27:56.522Z,94304.00
2018-08-12T09:28:56.514Z,92672.00
2018-08-12T09:29:56.496Z,103040.00
2018-08-12T09:30:56.466Z,106720.00
2018-08-12T09:31:56.473Z,106432.00
2018-08-12T09:32:56.443Z,104352.00
2018-08-12T09:33:56.438Z,98848.00
2018-08-12T09:34:58.479Z,100160.00
2018-08-12T09:35:56.912Z,109312.00
2018-08-12T09:36:56.383Z,103264.00
2018-08-12T09:37:57.232Z,115904.00
2018-08-12T09:38:56.950Z,112480.00
2018-08-12T09:39:57.990Z,108032.00
2018-08-12T09:40:57.781Z,100032.00
2018-08-12T09:42:00.378Z,96064.00
2018-08-12T09:42:56.560Z,89376.00
2018-08-12T09:43:59.460Z,94688.00
2018-08-12T09:45:00.120Z,95840.00
2018-08-12T09:45:56.938Z,100448.00
2018-08-12T09:46:57.176Z,88224.00
2018-08-12T09:47:59.038Z,97728.00
2018-08-12T09:48:57.805Z,101760.00
2018-08-12T09:49:59.090Z,106496.00
2018-08-12T09:50:58.005Z,104352.00
2018-08-12T09:51:58.262Z,110688.00
2018-08-12T09:52:56.945Z,112448.00
2018-08-12T09:53:58.004Z,106048.00
2018-08-12T09:54:58.075Z,85632.00
2018-08-12T09:55:57.585Z,85120.00
2018-08-12T09:56:57.303Z,88800.00
2018-08-12T09:57:56.324Z,87840.00
2018-08-12T09:58:57.240Z,98976.00
2018-08-12T09:59:57.260Z,94624.00
2018-08-12T10:00:56.151Z,95072.00
2018-08-12T10:01:56.362Z,95968.00
2018-08-12T10:02:57.238Z,94400.00
2018-08-12T10:03:55.956Z,87680.00
2018-08-12T10:04:55.822Z,91776.00
2018-08-12T10:05:55.805Z,99008.00
2018-08-12T10:06:55.813Z,95904.00
2018-08-12T10:07:55.758Z,89056.00
2018-08-12T10:08:56.081Z,89088.00
2018-08-12T10:09:56.253Z,92416.00
2018-08-12T10:10:56.812Z,96672.00
2018-08-12T10:11:55.754Z,89632.00
2018-08-12T12:17:25.843Z,66240.00
2018-08-12T12:18:25.765Z,64480.00
2018-08-12T12:20:18.984Z,65440.00
2018-08-12T12:21:18.816Z,66880.00
2018-08-12T12:23:12.065Z,65920.00
2018-08-12T12:24:11.875Z,63744.00
2018-08-12T12:26:05.131Z,84160.00
2018-08-12T12:27:04.936Z,75872.00
2018-08-12T12:28:58.756Z,81280.00
2018-08-12T12:29:58.510Z,69440.00
2018-08-12T12:30:58.515Z,67296.00
2018-08-12T12:31:58.464Z,72224.00
2018-08-12T12:32:58.448Z,70368.00
2018-08-12T12:33:58.425Z,68448.00
2018-08-12T12:34:58.397Z,66400.00
2018-08-12T12:35:58.386Z,72480.00
2018-08-12T12:36:58.430Z,71008.00
2018-08-12T12:37:58.388Z,76544.00
2018-08-12T12:38:58.304Z,74912.00
2018-08-12T12:39:58.307Z,67616.00
2018-08-12T12:40:58.300Z,73824.00
2018-08-12T12:41:58.277Z,71104.00
2018-08-12T12:42:58.330Z,63328.00
2018-08-12T12:43:58.226Z,60672.00
2018-08-12T12:44:58.206Z,67520.00
2018-08-12T12:45:58.176Z,74432.00
2018-08-12T12:46:58.154Z,73024.00
2018-08-12T12:47:58.122Z,62624.00
2018-08-12T12:48:58.123Z,59392.00
2018-08-12T12:49:58.089Z,72832.00
2018-08-12T12:51:00.847Z,76928.00
2018-08-12T12:51:58.065Z,68480.00
2018-08-12T12:52:58.073Z,69888.00
2018-08-12T12:53:58.021Z,71136.00
2018-08-12T12:54:58.027Z,74272.00
2018-08-12T12:55:57.978Z,79136.00
2018-08-12T12:56:57.974Z,72736.00
2018-08-12T12:57:57.996Z,66016.00
2018-08-12T12:58:57.922Z,69920.00
2018-08-12T12:59:57.905Z,78048.00
2018-08-12T13:00:57.884Z,78112.00
2018-08-12T13:01:57.850Z,73728.00
2018-08-12T13:02:57.831Z,70016.00
2018-08-12T13:03:57.811Z,81088.00
2018-08-12T13:04:57.801Z,73056.00
2018-08-12T13:05:57.778Z,64320.00
2018-08-12T13:06:57.766Z,70976.00
2018-08-12T13:07:57.755Z,72256.00
2018-08-12T13:08:57.711Z,69408.00
2018-08-12T13:09:57.699Z,66496.00
2018-08-12T13:10:57.674Z,66880.00
2018-08-12T13:11:57.649Z,64672.00
2018-08-12T13:12:57.639Z,58848.00
2018-08-12T13:13:57.636Z,57504.00
2018-08-12T13:14:57.590Z,68192.00
2018-08-12T13:15:57.594Z,72128.00
2018-08-12T13:16:57.563Z,72416.00
2018-08-12T13:17:57.730Z,72288.00
2018-08-12T13:18:57.524Z,73888.00
2018-08-12T13:19:57.505Z,81056.00
2018-08-12T13:20:57.472Z,74048.00
2018-08-12T13:21:57.463Z,70432.00
2018-08-12T13:22:57.425Z,79936.00
2018-08-12T13:23:57.417Z,67584.00
2018-08-12T13:24:57.405Z,60000.00
2018-08-12T13:25:57.395Z,64512.00
2018-08-12T13:26:57.352Z,67968.00
2018-08-12T13:27:57.329Z,65792.00
2018-08-12T13:28:57.321Z,58240.00
2018-08-12T13:29:57.291Z,56640.00
2018-08-12T13:30:57.288Z,65024.00
2018-08-12T13:31:57.257Z,69216.00
2018-08-12T13:32:57.257Z,68384.00
2018-08-12T13:33:57.222Z,60288.00
2018-08-12T13:34:57.194Z,57888.00
2018-08-12T13:35:57.178Z,67520.00
2018-08-12T13:36:57.144Z,68544.00
2018-08-12T13:37:57.126Z,64672.00
2018-08-12T13:38:57.115Z,66688.00
2018-08-12T13:39:57.090Z,69632.00
2018-08-12T13:40:57.092Z,70400.00
2018-08-12T13:41:57.047Z,62880.00
2018-08-12T13:42:57.031Z,63520.00
2018-08-12T13:43:57.004Z,63200.00
2018-08-12T13:44:57.001Z,58208.00
2018-08-12T13:45:56.979Z,58080.00
2018-08-12T13:46:56.994Z,63776.00
2018-08-12T13:47:56.928Z,64864.00
2018-08-12T13:48:57.034Z,64576.00
2018-08-12T13:49:56.905Z,61312.00
2018-08-12T13:50:56.868Z,57376.00
2018-08-12T13:51:56.857Z,56416.00
2018-08-12T13:52:56.832Z,61952.00
2018-08-12T13:53:56.812Z,66976.00
2018-08-12T13:54:56.794Z,58784.00
2018-08-12T13:55:56.784Z,55072.00
2018-08-12T13:56:56.824Z,52576.00
2018-08-12T13:57:56.735Z,46464.00
2018-08-12T13:58:56.713Z,51200.00
2018-08-12T13:59:56.689Z,48960.00
2018-08-12T14:00:56.723Z,54336.00
2018-08-12T14:01:56.662Z,52352.00
2018-08-12T14:02:56.649Z,48992.00
2018-08-12T14:03:56.620Z,47392.00
2018-08-12T14:04:56.602Z,52416.00
2018-08-12T14:05:56.598Z,53664.00
2018-08-12T14:06:56.569Z,57632.00
2018-08-12T14:07:56.535Z,61696.00
2018-08-12T14:08:56.511Z,59904.00
2018-08-12T14:09:56.493Z,58016.00
2018-08-12T14:10:56.494Z,69184.00
2018-08-12T14:11:56.462Z,71168.00
2018-08-12T14:12:56.436Z,71328.00
2018-08-12T14:13:56.430Z,71904.00
2018-08-12T14:14:56.387Z,69056.00
2018-08-12T14:15:56.366Z,64000.00
2018-08-12T14:16:56.344Z,60672.00
2018-08-12T14:17:56.339Z,64480.00
2018-08-12T14:18:56.307Z,62752.00
2018-08-12T14:19:56.296Z,53344.00
2018-08-12T14:20:56.264Z,53888.00